Terminal Aerodrome Forecast
Issued by NWS Twin Cities, MN

Home | Current Version | Previous Version | Graphics & Text | Print | Product List | Glossary On
Versions: 1 2 3 4 5 6 7 8 9 10 11 12 13 14 15 16 17 18 19 20
577
FTUS43 KMPX 241539 AAA
TAFEAU
TAF AMD
KEAU 241539Z 2416/2512 VRB03KT P6SM SCT005 OVC017
     FM241700 03004KT P6SM OVC015
     FM250300 07005KT 1SM -SN OVC008=

USA.gov is the U.S. government's official web portal to all federal, state and local government web resources and services.